createdAt,value
2019-06-26T00:00:24.422Z,21.29
2019-06-26T00:01:28.826Z,21.28
2019-06-26T00:02:33.286Z,21.27
2019-06-26T00:03:37.758Z,21.25
2019-06-26T00:04:42.232Z,21.25
2019-06-26T00:05:46.694Z,21.23
2019-06-26T00:06:51.203Z,21.22
2019-06-26T00:07:55.658Z,21.21
2019-06-26T00:09:00.140Z,21.20
2019-06-26T00:10:04.578Z,21.20
2019-06-26T00:11:09.081Z,21.19
2019-06-26T00:12:13.470Z,21.18
2019-06-26T00:13:26.135Z,21.17
2019-06-26T00:14:22.374Z,21.16
2019-06-26T00:15:26.909Z,21.15
2019-06-26T00:16:31.322Z,21.15
2019-06-26T00:17:35.747Z,21.14
2019-06-26T00:18:40.283Z,21.13
2019-06-26T00:19:44.674Z,21.12
2019-06-26T00:20:49.144Z,21.12
2019-06-26T00:21:53.665Z,21.11
2019-06-26T00:22:58.058Z,21.11
2019-06-26T00:24:02.558Z,21.11
2019-06-26T00:25:06.992Z,21.10
2019-06-26T00:26:11.453Z,21.10
2019-06-26T00:27:15.932Z,21.11
2019-06-26T00:28:20.413Z,21.11
2019-06-26T00:29:24.895Z,21.11
2019-06-26T00:30:29.289Z,21.11
2019-06-26T00:31:33.774Z,21.11
2019-06-26T00:32:38.209Z,21.12
2019-06-26T00:33:42.706Z,21.12
2019-06-26T00:34:47.182Z,21.12
2019-06-26T00:35:51.723Z,21.12
2019-06-26T00:36:56.240Z,21.12
2019-06-26T00:38:00.574Z,21.12
2019-06-26T00:39:05.033Z,21.12
2019-06-26T00:40:09.453Z,21.11
2019-06-26T00:41:13.922Z,21.10
2019-06-26T00:42:18.388Z,21.10
2019-06-26T00:43:22.839Z,21.11
2019-06-26T00:44:27.340Z,21.12
2019-06-26T00:45:31.765Z,21.14
2019-06-26T00:46:36.203Z,21.15
2019-06-26T00:47:40.667Z,21.15
2019-06-26T00:48:45.113Z,21.15
2019-06-26T00:49:49.603Z,21.16
2019-06-26T00:50:54.031Z,21.15
2019-06-26T00:51:58.453Z,21.14
2019-06-26T00:53:02.925Z,21.16
2019-06-26T00:54:07.351Z,21.16
2019-06-26T00:55:11.850Z,21.16
2019-06-26T00:56:16.278Z,21.16
2019-06-26T00:57:20.712Z,21.16
2019-06-26T00:58:25.178Z,21.15
2019-06-26T00:59:29.616Z,21.14
2019-06-26T01:00:34.058Z,21.14
2019-06-26T01:01:38.515Z,21.14
2019-06-26T01:02:42.943Z,21.14
2019-06-26T01:03:47.336Z,21.14
2019-06-26T01:04:51.825Z,21.14
2019-06-26T01:05:56.401Z,21.14
2019-06-26T01:07:00.924Z,21.14
2019-06-26T01:08:05.310Z,21.13
2019-06-26T01:09:09.735Z,21.13
2019-06-26T01:10:14.191Z,21.13
2019-06-26T01:11:21.585Z,21.11
2019-06-26T01:12:23.081Z,21.09
2019-06-26T01:13:27.648Z,21.08
2019-06-26T01:14:32.049Z,21.06
2019-06-26T01:15:36.556Z,21.05
2019-06-26T01:16:40.978Z,21.04
2019-06-26T01:17:45.427Z,21.04
2019-06-26T01:18:49.877Z,21.02
2019-06-26T01:19:54.288Z,21.00
2019-06-26T01:20:58.740Z,20.98
2019-06-26T01:22:03.467Z,20.96
2019-06-26T01:23:07.677Z,20.93
2019-06-26T01:24:12.243Z,20.91
2019-06-26T01:25:16.613Z,20.88
2019-06-26T01:26:21.054Z,20.84
2019-06-26T01:27:25.446Z,20.81
2019-06-26T01:28:29.959Z,20.78
2019-06-26T01:29:34.395Z,20.76
2019-06-26T01:30:38.874Z,20.74
2019-06-26T01:31:43.267Z,20.74
2019-06-26T01:32:47.702Z,20.74
2019-06-26T01:33:52.109Z,20.73
2019-06-26T01:34:56.532Z,20.72
2019-06-26T01:36:01.067Z,20.69
2019-06-26T01:37:05.443Z,20.66
2019-06-26T01:38:09.870Z,20.63
2019-06-26T01:39:14.272Z,20.60
2019-06-26T01:40:18.730Z,20.58
2019-06-26T01:41:23.299Z,20.58
2019-06-26T01:42:27.679Z,20.58
2019-06-26T01:43:32.199Z,20.59
2019-06-26T01:44:36.538Z,20.59
2019-06-26T01:45:41.039Z,20.60
2019-06-26T01:46:45.438Z,20.61
2019-06-26T01:47:49.871Z,20.63
2019-06-26T01:48:54.379Z,20.64
2019-06-26T01:49:58.793Z,20.64
2019-06-26T01:51:03.210Z,20.64
2019-06-26T01:52:07.617Z,20.64
2019-06-26T01:53:12.071Z,20.64
2019-06-26T01:54:16.517Z,20.64
2019-06-26T01:55:20.934Z,20.63
2019-06-26T01:56:25.359Z,20.61
2019-06-26T01:57:29.758Z,20.59
2019-06-26T01:58:34.237Z,20.58
2019-06-26T01:59:38.668Z,20.58
2019-06-26T02:00:43.106Z,20.57
2019-06-26T02:01:47.552Z,20.56
2019-06-26T02:02:51.994Z,20.55
2019-06-26T02:03:56.438Z,20.55
2019-06-26T02:05:00.880Z,20.54
2019-06-26T02:06:05.394Z,20.53
2019-06-26T02:07:09.769Z,20.51
2019-06-26T02:08:14.277Z,20.51
2019-06-26T02:09:18.803Z,20.51
2019-06-26T02:10:23.170Z,20.50
2019-06-26T02:11:27.621Z,20.50
2019-06-26T02:12:32.044Z,20.51
2019-06-26T02:13:36.474Z,20.52
2019-06-26T02:14:40.908Z,20.51
2019-06-26T02:15:45.358Z,20.50
2019-06-26T02:16:49.809Z,20.51
2019-06-26T02:17:54.282Z,20.50
2019-06-26T02:18:58.773Z,20.48
2019-06-26T02:20:03.188Z,20.47
2019-06-26T02:21:07.639Z,20.46
2019-06-26T02:22:12.111Z,20.45
2019-06-26T02:23:16.517Z,20.43
2019-06-26T02:24:23.978Z,20.42
2019-06-26T02:25:27.612Z,20.40
2019-06-26T02:26:32.020Z,20.38
2019-06-26T02:27:36.445Z,20.36
2019-06-26T02:28:40.883Z,20.35
2019-06-26T02:29:45.336Z,20.33
2019-06-26T02:30:49.764Z,20.32
2019-06-26T02:31:54.241Z,20.31
2019-06-26T02:32:58.680Z,20.31
2019-06-26T02:34:03.113Z,20.32
2019-06-26T02:35:09.921Z,20.32
2019-06-26T02:36:12.008Z,20.32
2019-06-26T02:37:16.440Z,20.34
2019-06-26T02:38:20.828Z,20.35
2019-06-26T02:39:25.291Z,20.34
2019-06-26T02:40:29.775Z,20.34
2019-06-26T02:41:34.151Z,20.33
2019-06-26T02:42:38.649Z,20.31
2019-06-26T02:43:43.025Z,20.29
2019-06-26T02:44:53.795Z,20.28
2019-06-26T02:45:52.020Z,20.27
2019-06-26T02:47:13.616Z,20.26
2019-06-26T02:48:00.883Z,20.24
2019-06-26T02:49:05.354Z,20.24
2019-06-26T02:50:09.757Z,20.25
2019-06-26T02:51:14.199Z,20.27
2019-06-26T02:52:18.609Z,20.29
2019-06-26T02:53:23.045Z,20.31
2019-06-26T02:54:27.587Z,20.30
2019-06-26T02:55:31.977Z,20.31
2019-06-26T02:56:36.444Z,20.32
2019-06-26T02:57:40.838Z,20.33
2019-06-26T02:58:45.304Z,20.32
2019-06-26T02:59:49.736Z,20.30
2019-06-26T03:00:54.114Z,20.29
2019-06-26T03:01:58.502Z,20.26
2019-06-26T03:03:02.984Z,20.24
2019-06-26T03:04:07.397Z,20.23
2019-06-26T03:05:11.863Z,20.22
2019-06-26T03:06:16.277Z,20.23
2019-06-26T03:07:20.751Z,20.23
2019-06-26T03:08:25.248Z,20.25
2019-06-26T03:09:29.638Z,20.28
2019-06-26T03:10:34.065Z,20.31
2019-06-26T03:11:38.596Z,20.34
2019-06-26T03:12:43.064Z,20.35
2019-06-26T03:13:47.480Z,20.35
2019-06-26T03:15:07.517Z,20.36
2019-06-26T03:15:56.355Z,20.36
2019-06-26T03:17:00.776Z,20.36
2019-06-26T03:18:05.331Z,20.36
2019-06-26T03:19:09.774Z,20.37
2019-06-26T03:20:14.213Z,20.38
2019-06-26T03:21:18.635Z,20.40
2019-06-26T03:22:23.089Z,20.41
2019-06-26T03:23:27.571Z,20.42
2019-06-26T03:24:32.036Z,20.42
2019-06-26T03:25:36.460Z,20.43
2019-06-26T03:26:40.894Z,20.43
2019-06-26T03:27:45.348Z,20.41
2019-06-26T03:28:49.766Z,20.41
2019-06-26T03:29:54.144Z,20.40
2019-06-26T03:30:58.652Z,20.39
2019-06-26T03:32:03.175Z,20.38
2019-06-26T03:33:07.556Z,20.36
2019-06-26T03:34:12.024Z,20.35
2019-06-26T03:35:16.451Z,20.34
2019-06-26T03:36:20.891Z,20.33
2019-06-26T03:37:25.343Z,20.33
2019-06-26T03:38:29.808Z,20.34
2019-06-26T03:39:34.260Z,20.36
2019-06-26T03:40:38.674Z,20.42
2019-06-26T03:41:43.120Z,20.47
2019-06-26T03:42:47.548Z,20.52
2019-06-26T03:43:52.028Z,20.58
2019-06-26T03:44:56.463Z,20.62
2019-06-26T03:46:00.899Z,20.67
2019-06-26T03:47:05.338Z,20.72
2019-06-26T03:48:09.780Z,20.73
2019-06-26T03:49:14.192Z,20.72
2019-06-26T03:50:18.602Z,20.69
2019-06-26T03:51:23.047Z,20.67
2019-06-26T03:52:27.505Z,20.68
2019-06-26T03:53:31.997Z,20.71
2019-06-26T03:54:36.441Z,20.75
2019-06-26T03:55:40.856Z,20.85
2019-06-26T03:56:45.382Z,20.99
2019-06-26T03:57:49.787Z,21.16
2019-06-26T03:58:54.224Z,21.32
2019-06-26T03:59:58.701Z,21.48
2019-06-26T04:01:03.134Z,21.61
2019-06-26T04:02:07.575Z,21.74
2019-06-26T04:03:12.029Z,21.82
2019-06-26T04:04:16.552Z,21.88
2019-06-26T04:05:21.069Z,21.90
2019-06-26T04:06:25.580Z,21.89
2019-06-26T04:07:30.090Z,21.86
2019-06-26T04:08:34.522Z,21.81
2019-06-26T04:09:38.971Z,21.77
2019-06-26T04:10:43.700Z,21.73
2019-06-26T04:11:47.946Z,21.70
2019-06-26T04:12:52.507Z,21.67
2019-06-26T04:13:56.812Z,21.63
2019-06-26T04:15:01.282Z,21.60
2019-06-26T04:16:05.705Z,21.61
2019-06-26T04:17:10.159Z,21.60
2019-06-26T04:18:14.607Z,21.60
2019-06-26T04:19:19.061Z,21.61
2019-06-26T04:20:23.536Z,21.60
2019-06-26T04:21:27.989Z,21.62
2019-06-26T04:22:32.461Z,21.64
2019-06-26T04:23:36.894Z,21.67
2019-06-26T04:24:41.375Z,21.71
2019-06-26T04:25:45.833Z,21.75
2019-06-26T04:26:50.274Z,21.79
2019-06-26T04:27:54.726Z,21.82
2019-06-26T04:28:59.165Z,21.86
2019-06-26T04:30:03.654Z,21.90
2019-06-26T04:31:08.120Z,21.93
2019-06-26T04:32:12.563Z,21.97
2019-06-26T04:33:17.011Z,22.00
2019-06-26T04:34:21.516Z,22.03
2019-06-26T04:35:25.942Z,22.06
2019-06-26T04:36:30.396Z,22.08
2019-06-26T04:37:34.846Z,22.09
2019-06-26T04:38:39.289Z,22.12
2019-06-26T04:39:43.820Z,22.14
2019-06-26T04:40:48.283Z,22.17
2019-06-26T04:41:52.764Z,22.19
2019-06-26T04:42:57.170Z,22.21
2019-06-26T04:44:01.619Z,22.24
2019-06-26T04:45:06.058Z,22.27
2019-06-26T04:46:10.562Z,22.30
2019-06-26T04:47:15.050Z,22.33
2019-06-26T04:48:19.499Z,22.35
2019-06-26T04:49:23.950Z,22.37
2019-06-26T04:50:28.469Z,22.41
2019-06-26T04:51:32.951Z,22.44
2019-06-26T04:52:37.413Z,22.47
2019-06-26T04:53:41.848Z,22.51
2019-06-26T04:54:46.297Z,22.54
2019-06-26T04:55:50.788Z,22.56
2019-06-26T04:56:55.260Z,22.59
2019-06-26T04:57:59.751Z,22.63
2019-06-26T04:59:04.226Z,22.66
2019-06-26T05:00:08.774Z,22.70
2019-06-26T05:01:13.239Z,22.74
2019-06-26T05:02:17.671Z,22.77
2019-06-26T05:03:22.308Z,22.81
2019-06-26T05:04:26.639Z,22.85
2019-06-26T05:05:39.692Z,22.88
2019-06-26T05:06:35.613Z,22.92
2019-06-26T05:07:40.056Z,22.96
2019-06-26T05:08:44.534Z,23.00
2019-06-26T05:09:49.096Z,23.04
2019-06-26T05:10:53.646Z,23.08
2019-06-26T05:11:58.109Z,23.13
2019-06-26T05:13:02.605Z,23.17
2019-06-26T05:14:07.042Z,23.21
2019-06-26T05:15:11.541Z,23.26
2019-06-26T05:16:20.079Z,23.30
2019-06-26T05:17:20.446Z,23.34
2019-06-26T05:18:24.920Z,23.38
2019-06-26T05:19:29.424Z,23.42
2019-06-26T05:20:33.910Z,23.47
2019-06-26T05:21:38.398Z,23.51
2019-06-26T05:22:42.848Z,23.56
2019-06-26T05:23:47.350Z,23.61
2019-06-26T05:24:51.834Z,23.65
2019-06-26T05:25:56.338Z,23.69
2019-06-26T05:27:00.818Z,23.74
2019-06-26T05:28:08.275Z,23.78
2019-06-26T05:29:09.764Z,23.83
2019-06-26T05:30:14.285Z,23.89
2019-06-26T05:31:18.892Z,23.94
2019-06-26T05:32:23.305Z,24.00
2019-06-26T05:33:27.815Z,24.05
2019-06-26T05:34:32.382Z,24.11
2019-06-26T05:35:36.841Z,24.17
2019-06-26T05:36:41.361Z,24.24
2019-06-26T05:37:45.873Z,24.35
2019-06-26T05:38:50.417Z,24.51
2019-06-26T05:39:54.981Z,24.73
2019-06-26T05:40:59.343Z,24.99
2019-06-26T05:42:06.675Z,25.25
2019-06-26T05:43:08.505Z,25.47
2019-06-26T05:44:13.016Z,25.65
2019-06-26T05:45:17.533Z,25.80
2019-06-26T05:46:31.051Z,25.93
2019-06-26T05:47:26.690Z,26.04
2019-06-26T05:48:31.162Z,26.13
2019-06-26T05:49:35.667Z,26.19
2019-06-26T05:50:40.173Z,26.25
2019-06-26T05:51:44.715Z,26.30
2019-06-26T05:52:49.250Z,26.34
2019-06-26T05:53:53.823Z,26.39
2019-06-26T05:54:58.353Z,26.44
2019-06-26T05:56:02.881Z,26.48
2019-06-26T05:57:07.343Z,26.53
2019-06-26T05:58:11.953Z,26.57
2019-06-26T05:59:16.501Z,26.62
2019-06-26T06:00:20.956Z,26.66
2019-06-26T06:01:25.465Z,26.71
2019-06-26T06:02:29.946Z,26.77
2019-06-26T06:03:34.418Z,26.81
2019-06-26T06:04:38.923Z,26.84
2019-06-26T06:05:43.483Z,26.85
2019-06-26T06:06:47.983Z,26.86
2019-06-26T06:07:52.540Z,26.88
2019-06-26T06:08:57.146Z,26.88
2019-06-26T06:10:01.618Z,26.88
2019-06-26T06:11:06.201Z,26.87
2019-06-26T06:12:10.682Z,26.89
2019-06-26T06:13:15.204Z,26.92
2019-06-26T06:14:19.731Z,26.95
2019-06-26T06:15:24.358Z,26.98
2019-06-26T06:16:28.818Z,27.03
2019-06-26T06:17:33.401Z,27.11
2019-06-26T06:18:37.957Z,27.17
2019-06-26T06:19:42.568Z,27.23
2019-06-26T06:20:47.059Z,27.28
2019-06-26T06:21:51.694Z,27.30
2019-06-26T06:22:56.209Z,27.34
2019-06-26T06:24:00.778Z,27.37
2019-06-26T06:25:05.302Z,27.39
2019-06-26T06:26:09.834Z,27.42
2019-06-26T06:27:14.369Z,27.43
2019-06-26T06:28:18.953Z,27.47
2019-06-26T06:29:23.448Z,27.50
2019-06-26T06:30:27.941Z,27.52
2019-06-26T06:31:32.450Z,27.55
2019-06-26T06:32:37.054Z,27.60
2019-06-26T06:33:41.568Z,27.65
2019-06-26T06:34:46.149Z,27.70
2019-06-26T06:35:50.657Z,27.74
2019-06-26T06:36:55.172Z,27.79
2019-06-26T06:37:59.788Z,27.84
2019-06-26T06:39:04.313Z,27.91
2019-06-26T06:40:08.845Z,27.99
2019-06-26T06:41:13.464Z,28.07
2019-06-26T06:42:17.934Z,28.14
2019-06-26T06:43:22.421Z,28.20
2019-06-26T06:44:27.029Z,28.25
2019-06-26T06:45:31.535Z,28.30
2019-06-26T06:46:36.026Z,28.35
2019-06-26T06:47:40.604Z,28.40
2019-06-26T06:48:45.226Z,28.48
2019-06-26T06:49:49.782Z,28.63
2019-06-26T06:50:54.286Z,28.81
2019-06-26T06:51:58.863Z,29.06
2019-06-26T06:53:03.419Z,29.37
2019-06-26T06:54:08.006Z,29.67
2019-06-26T06:55:12.690Z,29.94
2019-06-26T06:56:17.106Z,30.15
2019-06-26T06:57:21.722Z,30.28
2019-06-26T06:58:26.235Z,30.32
2019-06-26T06:59:30.822Z,30.31
2019-06-26T07:00:35.317Z,30.21
2019-06-26T07:01:39.852Z,30.07
2019-06-26T07:02:44.364Z,29.94
2019-06-26T07:03:48.846Z,29.82
2019-06-26T07:04:53.330Z,29.71
2019-06-26T07:05:57.838Z,29.58
2019-06-26T07:07:02.374Z,29.47
2019-06-26T07:08:06.876Z,29.36
2019-06-26T07:09:11.444Z,29.28
2019-06-26T07:10:15.998Z,29.22
2019-06-26T07:11:20.436Z,29.18
2019-06-26T07:12:25.032Z,29.14
2019-06-26T07:13:29.537Z,29.11
2019-06-26T07:14:34.147Z,29.08
2019-06-26T07:15:38.685Z,29.07
2019-06-26T07:16:43.180Z,29.08
2019-06-26T07:17:47.708Z,29.09
2019-06-26T07:18:52.215Z,29.12
2019-06-26T07:19:56.773Z,29.13
2019-06-26T07:21:01.301Z,29.13
2019-06-26T07:22:07.360Z,29.16
2019-06-26T07:23:10.420Z,29.19
2019-06-26T07:24:14.912Z,29.20
2019-06-26T07:25:19.422Z,29.22
2019-06-26T07:26:23.937Z,29.24
2019-06-26T07:27:28.469Z,29.24
2019-06-26T07:28:32.995Z,29.23
2019-06-26T07:29:37.524Z,29.21
2019-06-26T07:30:42.056Z,29.20
2019-06-26T07:31:46.528Z,29.18
2019-06-26T07:32:51.083Z,29.17
2019-06-26T07:33:56.073Z,29.18
2019-06-26T07:35:00.220Z,29.19
2019-06-26T07:36:04.707Z,29.19
2019-06-26T07:37:09.203Z,29.21
2019-06-26T07:38:13.721Z,29.23
2019-06-26T07:39:18.247Z,29.26
2019-06-26T07:40:22.794Z,29.28
2019-06-26T07:41:27.341Z,29.26
2019-06-26T07:42:31.839Z,29.24
2019-06-26T07:43:36.456Z,29.24
2019-06-26T07:44:40.961Z,29.23
2019-06-26T07:45:45.507Z,29.23
2019-06-26T07:46:50.083Z,29.23
2019-06-26T07:47:54.558Z,29.22
2019-06-26T07:48:59.136Z,29.22
2019-06-26T07:50:03.760Z,29.22
2019-06-26T07:51:08.172Z,29.22
2019-06-26T07:52:12.691Z,29.22
2019-06-26T07:53:17.289Z,29.22
2019-06-26T07:54:21.851Z,29.24
2019-06-26T07:55:26.434Z,29.27
2019-06-26T07:56:30.973Z,29.29
2019-06-26T07:57:35.445Z,29.32
2019-06-26T07:58:40.093Z,29.35
2019-06-26T07:59:44.553Z,29.37
2019-06-26T08:00:49.114Z,29.39
2019-06-26T08:01:53.622Z,29.41
2019-06-26T08:02:58.158Z,29.43
2019-06-26T08:04:02.761Z,29.45
2019-06-26T08:05:07.341Z,29.47
2019-06-26T08:06:11.957Z,29.49
2019-06-26T08:07:16.464Z,29.52
2019-06-26T08:08:21.008Z,29.54
2019-06-26T08:09:25.464Z,29.56
2019-06-26T08:10:29.996Z,29.59
2019-06-26T08:11:34.538Z,29.62
2019-06-26T08:12:38.956Z,29.66
2019-06-26T08:13:43.533Z,29.71
2019-06-26T08:14:48.151Z,29.77
2019-06-26T08:15:52.632Z,29.82
2019-06-26T08:16:57.125Z,29.87
2019-06-26T08:18:01.771Z,29.93
2019-06-26T08:19:06.138Z,29.97
2019-06-26T08:20:10.656Z,30.01
2019-06-26T08:21:15.173Z,30.03
2019-06-26T08:22:19.731Z,30.04
2019-06-26T08:23:24.229Z,30.05
2019-06-26T08:24:29.105Z,30.04
2019-06-26T08:25:33.494Z,30.04
2019-06-26T08:26:38.118Z,30.05
2019-06-26T08:27:42.576Z,30.06
2019-06-26T08:28:50.029Z,30.07
2019-06-26T08:29:53.699Z,30.07
2019-06-26T08:30:58.178Z,30.08
2019-06-26T08:32:02.750Z,30.11
2019-06-26T08:33:07.167Z,30.14
2019-06-26T08:34:11.743Z,30.18
2019-06-26T08:35:16.289Z,30.25
2019-06-26T08:36:20.856Z,30.35
2019-06-26T08:37:25.402Z,30.43
2019-06-26T08:38:29.868Z,30.51
2019-06-26T08:39:34.383Z,30.59
2019-06-26T08:40:38.901Z,30.65
2019-06-26T08:41:43.356Z,30.73
2019-06-26T08:42:47.928Z,30.78
2019-06-26T08:43:52.440Z,30.85
2019-06-26T08:44:56.946Z,30.91
2019-06-26T08:46:01.414Z,30.96
2019-06-26T08:47:06.006Z,30.99
2019-06-26T08:48:19.262Z,31.01
2019-06-26T08:49:24.993Z,31.04
2019-06-26T08:50:19.638Z,31.06
2019-06-26T08:51:24.119Z,31.07
2019-06-26T08:52:28.648Z,31.09
2019-06-26T08:53:33.216Z,31.12
2019-06-26T08:54:37.756Z,31.17
2019-06-26T08:55:42.224Z,31.24
2019-06-26T08:56:46.777Z,31.31
2019-06-26T08:57:51.365Z,31.37
2019-06-26T08:58:55.950Z,31.41
2019-06-26T09:00:00.488Z,31.45
2019-06-26T09:01:05.002Z,31.50
2019-06-26T09:02:09.429Z,31.53
2019-06-26T09:03:14.030Z,31.55
2019-06-26T09:04:18.568Z,31.57
2019-06-26T09:05:23.031Z,31.58
2019-06-26T09:06:27.622Z,31.59
2019-06-26T09:07:32.236Z,31.60
2019-06-26T09:08:36.761Z,31.63
2019-06-26T09:09:41.358Z,31.65
2019-06-26T09:10:45.852Z,31.68
2019-06-26T09:11:50.449Z,31.71
2019-06-26T09:12:54.939Z,31.75
2019-06-26T09:13:59.525Z,31.78
2019-06-26T09:15:04.144Z,31.80
2019-06-26T09:16:08.608Z,31.86
2019-06-26T09:17:13.176Z,31.89
2019-06-26T09:18:31.140Z,31.93
2019-06-26T09:19:22.293Z,31.96
2019-06-26T09:20:26.843Z,31.97
2019-06-26T09:21:31.605Z,32.00
2019-06-26T09:22:35.898Z,32.04
2019-06-26T09:23:40.324Z,32.13
2019-06-26T09:24:44.930Z,32.24
2019-06-26T09:25:49.855Z,32.33
2019-06-26T09:26:53.959Z,32.40
2019-06-26T09:27:58.469Z,32.48
2019-06-26T09:29:03.018Z,32.52
2019-06-26T09:30:07.571Z,32.53
2019-06-26T09:31:12.124Z,32.54
2019-06-26T09:32:16.649Z,32.56
2019-06-26T09:33:21.203Z,32.58
2019-06-26T09:34:25.759Z,32.60
2019-06-26T09:35:30.349Z,32.63
2019-06-26T09:36:34.858Z,32.66
2019-06-26T09:37:39.295Z,32.69
2019-06-26T09:38:43.893Z,32.71
2019-06-26T09:39:48.463Z,32.72
2019-06-26T09:40:53.019Z,32.74
2019-06-26T09:41:57.536Z,32.79
2019-06-26T09:43:02.057Z,32.81
2019-06-26T09:44:06.692Z,32.82
2019-06-26T09:45:11.179Z,32.84
2019-06-26T09:46:15.720Z,32.86
2019-06-26T09:47:20.249Z,32.90
2019-06-26T09:48:24.717Z,32.92
2019-06-26T09:49:29.332Z,32.94
2019-06-26T09:50:33.867Z,32.96
2019-06-26T09:51:38.505Z,33.02
2019-06-26T09:52:42.969Z,33.06
2019-06-26T09:53:48.076Z,33.10
2019-06-26T09:54:52.052Z,33.12
2019-06-26T09:55:56.491Z,33.17
2019-06-26T09:57:01.255Z,33.20
2019-06-26T09:58:05.680Z,33.23
2019-06-26T09:59:10.175Z,33.27
2019-06-26T10:00:14.762Z,33.30
2019-06-26T10:01:19.182Z,33.33
2019-06-26T10:02:23.824Z,33.38
2019-06-26T10:03:28.414Z,33.41
2019-06-26T10:04:32.920Z,33.42
2019-06-26T10:05:37.431Z,33.42
2019-06-26T10:06:41.992Z,33.41
2019-06-26T10:07:46.523Z,33.39
2019-06-26T10:08:54.144Z,33.40
2019-06-26T10:09:55.927Z,33.41
2019-06-26T10:11:00.206Z,33.42
2019-06-26T10:12:04.749Z,33.43
2019-06-26T10:13:09.277Z,33.45
2019-06-26T10:14:13.818Z,33.47
2019-06-26T10:15:18.429Z,33.50
2019-06-26T10:16:22.938Z,33.53
2019-06-26T10:17:27.462Z,33.58
2019-06-26T10:18:32.024Z,33.63
2019-06-26T10:19:36.584Z,33.66
2019-06-26T10:20:41.134Z,33.70
2019-06-26T10:21:45.789Z,33.74
2019-06-26T10:22:50.260Z,33.76
2019-06-26T10:23:54.856Z,33.77
2019-06-26T10:24:59.347Z,33.77
2019-06-26T10:26:03.878Z,33.76
2019-06-26T10:27:08.517Z,33.76
2019-06-26T10:28:13.050Z,33.75
2019-06-26T10:29:17.602Z,33.75
2019-06-26T10:30:22.226Z,33.78
2019-06-26T10:31:26.735Z,33.78
2019-06-26T10:32:31.174Z,33.78
2019-06-26T10:33:35.620Z,33.78
2019-06-26T10:34:40.183Z,33.79
2019-06-26T10:35:44.764Z,33.81
2019-06-26T10:36:49.399Z,33.84
2019-06-26T10:37:53.900Z,33.87
2019-06-26T10:38:58.465Z,33.90
2019-06-26T10:40:02.994Z,33.93
2019-06-26T10:41:07.576Z,33.94
2019-06-26T10:42:12.107Z,33.94
2019-06-26T10:43:16.633Z,33.95
2019-06-26T10:44:21.208Z,33.97
2019-06-26T10:45:25.758Z,33.98
2019-06-26T10:46:30.303Z,33.98
2019-06-26T10:47:34.872Z,33.99
2019-06-26T10:48:39.414Z,34.01
2019-06-26T10:49:43.947Z,34.04
2019-06-26T10:50:56.890Z,34.06
2019-06-26T10:51:53.054Z,34.10
2019-06-26T10:52:57.466Z,34.15
2019-06-26T10:54:02.067Z,34.22
2019-06-26T10:55:06.606Z,34.30
2019-06-26T10:56:11.059Z,34.41
2019-06-26T10:57:15.555Z,34.52
2019-06-26T10:58:20.155Z,34.63
2019-06-26T10:59:24.699Z,34.72
2019-06-26T11:00:29.313Z,34.77
2019-06-26T11:01:33.887Z,34.85
2019-06-26T11:02:38.416Z,34.93
2019-06-26T11:03:43.000Z,35.00
2019-06-26T11:04:47.551Z,35.07
2019-06-26T11:05:52.168Z,35.14
2019-06-26T11:06:56.722Z,35.21
2019-06-26T11:08:01.229Z,35.26
2019-06-26T11:09:05.804Z,35.31
2019-06-26T11:10:10.361Z,35.38
2019-06-26T11:11:14.900Z,35.43
2019-06-26T11:12:19.445Z,35.48
2019-06-26T11:13:24.001Z,35.51
2019-06-26T11:14:28.481Z,35.52
2019-06-26T11:15:33.214Z,35.56
2019-06-26T11:16:37.667Z,35.60
2019-06-26T11:17:42.194Z,35.66
2019-06-26T11:18:46.772Z,35.73
2019-06-26T11:19:55.138Z,35.77
2019-06-26T11:20:55.919Z,35.80
2019-06-26T11:22:00.388Z,35.81
2019-06-26T11:23:04.893Z,35.83
2019-06-26T11:24:09.493Z,35.81
2019-06-26T11:25:14.024Z,35.76
2019-06-26T11:26:18.617Z,35.77
2019-06-26T11:27:23.194Z,35.82
2019-06-26T11:28:27.857Z,35.90
2019-06-26T11:29:32.379Z,35.98
2019-06-26T11:30:36.934Z,36.02
2019-06-26T11:31:41.521Z,36.06
2019-06-26T11:32:46.087Z,36.11
2019-06-26T11:33:50.676Z,36.13
2019-06-26T11:34:55.224Z,36.11
2019-06-26T11:35:59.789Z,36.10
2019-06-26T11:37:04.855Z,36.06
2019-06-26T11:38:08.966Z,36.09
2019-06-26T11:39:13.430Z,36.13
2019-06-26T11:40:18.025Z,36.16
2019-06-26T11:41:22.522Z,36.13
2019-06-26T11:42:27.155Z,36.09
2019-06-26T11:43:31.653Z,35.98
2019-06-26T11:44:36.171Z,35.96
2019-06-26T11:45:40.716Z,35.99
2019-06-26T11:46:45.292Z,36.04
2019-06-26T11:47:49.847Z,36.11
2019-06-26T11:48:54.527Z,36.18
2019-06-26T11:50:00.402Z,36.19
2019-06-26T11:51:03.405Z,36.21
2019-06-26T11:52:08.003Z,36.18
2019-06-26T11:53:12.601Z,36.18
2019-06-26T11:54:17.195Z,36.17
2019-06-26T11:55:21.738Z,36.15
2019-06-26T11:56:26.289Z,36.20
2019-06-26T11:57:30.897Z,36.22
2019-06-26T11:58:35.473Z,36.23
2019-06-26T11:59:39.996Z,36.25
2019-06-26T12:00:44.647Z,36.15
2019-06-26T12:01:49.117Z,36.06
2019-06-26T12:02:53.784Z,36.02
2019-06-26T12:03:58.244Z,36.05
2019-06-26T12:05:02.811Z,36.09
2019-06-26T12:06:15.722Z,36.14
2019-06-26T12:07:11.964Z,36.19
2019-06-26T12:08:18.566Z,36.26
2019-06-26T12:09:21.044Z,36.36
2019-06-26T12:10:25.626Z,36.45
2019-06-26T12:11:30.208Z,36.45
2019-06-26T12:12:34.670Z,36.38
2019-06-26T12:13:39.221Z,36.37
2019-06-26T12:14:43.777Z,36.41
2019-06-26T12:15:48.271Z,36.45
2019-06-26T12:16:52.815Z,36.46
2019-06-26T12:17:57.431Z,36.40
2019-06-26T12:19:01.977Z,36.24
2019-06-26T12:20:17.920Z,36.19
2019-06-26T12:21:11.094Z,36.13
2019-06-26T12:22:15.716Z,36.09
2019-06-26T12:23:20.243Z,36.06
2019-06-26T12:24:26.624Z,36.04
2019-06-26T12:25:29.346Z,35.99
2019-06-26T12:26:33.835Z,36.00
2019-06-26T12:27:38.448Z,35.99
2019-06-26T12:28:43.003Z,36.04
2019-06-26T12:29:47.645Z,36.09
2019-06-26T12:30:52.192Z,36.01
2019-06-26T12:31:56.735Z,35.94
2019-06-26T12:33:03.482Z,35.93
2019-06-26T12:34:05.816Z,35.96
2019-06-26T12:35:10.393Z,36.04
2019-06-26T12:36:15.017Z,36.05
2019-06-26T12:37:19.501Z,36.09
2019-06-26T12:38:24.084Z,36.11
2019-06-26T12:39:28.626Z,36.07
2019-06-26T12:40:33.205Z,36.00
2019-06-26T12:41:37.749Z,35.88
2019-06-26T12:42:42.342Z,35.87
2019-06-26T12:43:46.970Z,35.76
2019-06-26T12:44:51.484Z,35.70
2019-06-26T12:45:56.088Z,35.71
2019-06-26T12:47:00.483Z,35.75
2019-06-26T12:48:05.116Z,35.84
2019-06-26T12:49:09.668Z,35.90
2019-06-26T12:50:14.217Z,35.99
2019-06-26T12:51:18.774Z,36.08
2019-06-26T12:52:23.316Z,36.05
2019-06-26T12:53:27.887Z,36.03
2019-06-26T12:54:32.417Z,36.02
2019-06-26T12:55:36.988Z,36.02
2019-06-26T12:56:41.638Z,35.96
2019-06-26T12:57:46.092Z,35.90
2019-06-26T12:58:50.701Z,35.82
2019-06-26T12:59:57.670Z,35.73
2019-06-26T13:00:59.749Z,35.54
2019-06-26T13:02:04.278Z,35.43
2019-06-26T13:03:08.833Z,35.40
2019-06-26T13:04:13.408Z,35.38
2019-06-26T13:05:17.987Z,35.33
2019-06-26T13:06:22.492Z,35.31
2019-06-26T13:07:27.084Z,35.29
2019-06-26T13:08:31.503Z,35.20
2019-06-26T13:09:35.985Z,35.12
2019-06-26T13:10:49.383Z,35.03
2019-06-26T13:11:45.011Z,34.96
2019-06-26T13:12:49.685Z,34.91
2019-06-26T13:14:02.714Z,34.86
2019-06-26T13:14:58.845Z,34.80
2019-06-26T13:16:03.391Z,34.61
2019-06-26T13:17:07.922Z,34.47
2019-06-26T13:18:12.341Z,34.26
2019-06-26T13:19:16.962Z,34.13
2019-06-26T13:20:21.521Z,34.01
2019-06-26T13:21:26.074Z,33.90
2019-06-26T13:22:30.640Z,33.73
2019-06-26T13:23:35.114Z,33.60
2019-06-26T13:24:43.655Z,33.54
2019-06-26T13:25:44.263Z,33.50
2019-06-26T13:26:48.843Z,33.46
2019-06-26T13:27:53.367Z,33.35
2019-06-26T13:28:57.951Z,33.27
2019-06-26T13:30:02.422Z,33.16
2019-06-26T13:31:06.974Z,33.09
2019-06-26T13:32:11.403Z,33.04
2019-06-26T13:33:15.954Z,32.99
2019-06-26T13:34:20.561Z,32.95
2019-06-26T13:35:25.151Z,32.94
2019-06-26T13:36:29.646Z,32.92
2019-06-26T13:37:34.122Z,32.95
2019-06-26T13:38:41.709Z,33.00
2019-06-26T13:39:45.396Z,33.01
2019-06-26T13:40:49.884Z,33.00
2019-06-26T13:41:55.383Z,32.98
2019-06-26T13:42:59.521Z,32.94
2019-06-26T13:44:03.995Z,32.88
2019-06-26T13:45:08.575Z,32.80
2019-06-26T13:46:13.169Z,32.70
2019-06-26T13:47:17.703Z,32.61
2019-06-26T13:48:22.328Z,32.46
2019-06-26T13:49:26.770Z,32.37
2019-06-26T13:50:31.343Z,32.32